Aérodrome :
LOGIN :

S'inscrire | Disclaimer

   EN    FR    IT 

 










Légende :    VFR   VFR Marginal   IFR   IFR Intensif   IFR Très Intensif
Visi : 
Plafond : 
>= 8 km
>= 3000ft
5 à 8 km
1000 à 3000 ft
1500m à 5 km
500 à 1000 ft
800 à 1500m
200 à 500 ft
< 800m
< 200 ft
Symboles :   Orages  Brouillard  Fortes neiges  Fortes précipitations  Vent > 20 kt
SIGMETs :   Divers  Orages  Givrage  Turbulence  Onde Orograph.  Cendres Volcan.






- Altitude de l'aérodrome : 157 ft
- Code IATA : SXF


EDDB - Berlin Schönefeld

DERNIER METAR :
  • 300320Z 02006KT CAVOK 08/03 Q1026 NOSIG

METARs EXPIRÉS :
  • 300250Z 03005KT CAVOK 08/03 Q1026 NOSIG
  • 300220Z 03006KT CAVOK 08/03 Q1026 NOSIG
  • 300150Z 04006KT CAVOK 09/04 Q1026 NOSIG
  • 300120Z 04007KT CAVOK 09/04 Q1026 NOSIG
  • 300050Z 04009KT CAVOK 10/04 Q1026 NOSIG

TAF TAF EDDB
Valide du 30 à 00h jusqu'au 31 à 00h UTC


292300Z 3000/3024 03004KT CAVOK
BECMG 3005/3008 02012KT
TEMPO 3010/3017 02015G25KT
BECMG 3019/3022 36006KT



MET'MAP, la Météo Aéronautique d'un coup d'oeil ! - Copyright ORBIFLY Décembre 2007 - Disclaimer

ORBIFLY MET'MAP TEAM :

Programmation & Développement : Alexandra Zaïnal
Sur une idée originale de : Baudouin d'Aumeries
Assistance à la programmation : Marc-Olivier Méhu
Soutien technique & logistique : Manuel Goepfert

Contact : metmap@orbifly.com




SOURCES & CREDITS :

   NOAA